Strona główna
METAR-TAF:

METAR-TAF

Lotnisko :

College Park, Maryland, Stany Zjednoczone

Szerokość geograficzna: 38-58-50N, Długość geograficzna: 076-55-20W, wysokość: 15 m

Aktualna obserwacja pogody

Raport powstał 25 minut temu, godzina 15:15 UTC
Cisza
Temperatura 28°C
Wilgotność 45%
Ciśnienie 1013 hPa
Widzialność: 16.1 km
bezchmurnie

METAR: KCGS 041515Z AUTO 00000KT 10SM CLR 28/15 A2991 RMK AO1 T02820152

czas: 11:40 (15:40 UTC)


TAF: brakujący

Obserwacja i prognoza pogody dla ponad 4000 lotnisk (raport METAR i TAF).

Dostępne stacje oznaczono żółtymi i czerwonymi punktami na mapie.

Najedź kursorem aby zobaczyć nazwę stacji.

Kliknij aby zobaczyć obserwacje i prognozy pogody.

Aby zmienić mapę: kliknij na zielony przycisk z czarnym krzyżykiem, aby powiększyć; na zielony przycisk z myślnikiem, aby pomniejszyć; na zielone strzałki, aby przejść do map sąsiednich.


METAR-TAF: